Time;durP1;ratioP1;P1;durP2;ratioP2;P2;SDS_P1;SDS_P2;PMS_P1;PMS_P2;Temp;Humidity;BMP_temperature;BMP_pressure;BME280_temperature;BME280_humidity;BME280_pressure;Samples;Min_cycle;Max_cycle;Signal;HPM_P1;HPM_P2
2021/04/04 00:01:13;;;;;;;14.70;5.50;;;6.80;99.90;;;;;;5014001;28;20184;-64
2021/04/04 00:03:39;;;;;;;9.90;5.32;;;6.70;99.90;;;;;;5013822;28;20185;-64
2021/04/04 00:06:05;;;;;;;14.70;6.78;;;6.50;99.90;;;;;;5013999;28;20193;-66
2021/04/04 00:08:30;;;;;;;8.60;4.47;;;6.60;1.00;;;;;;5013959;28;20282;-66
2021/04/04 00:10:56;;;;;;;18.87;5.43;;;6.70;1.00;;;;;;5029577;28;20186;-66
2021/04/04 00:13:22;;;;;;;15.80;5.93;;;6.70;99.90;;;;;;5013743;28;20180;-63
2021/04/04 00:15:47;;;;;;;11.77;5.53;;;6.70;99.90;;;;;;5013893;28;20184;-62
2021/04/04 00:18:13;;;;;;;14.73;5.90;;;6.50;99.90;;;;;;5013932;28;20196;-62
2021/04/04 00:20:39;;;;;;;14.50;5.90;;;6.40;99.90;;;;;;5013690;28;20272;-62
2021/04/04 00:23:05;;;;;;;20.20;8.33;;;6.30;1.00;;;;;;5016956;28;20271;-62
2021/04/04 00:25:30;;;;;;;20.48;6.82;;;6.30;1.00;;;;;;5020255;28;20190;-62
2021/04/04 00:27:56;;;;;;;17.83;6.97;;;6.50;1.00;;;;;;5020284;28;20503;-62
2021/04/04 00:30:23;;;;;;;15.90;6.93;;;6.30;1.00;;;;;;5020255;28;20261;-62
2021/04/04 00:32:49;;;;;;;14.20;6.60;;;6.30;1.00;;;;;;5020043;28;20179;-62
2021/04/04 00:35:18;;;;;;;13.65;7.38;;;6.30;1.00;;;;;;5019912;28;20181;-62
2021/04/04 00:37:49;;;;;;;14.13;6.07;;;6.30;1.00;;;;;;5020062;28;20203;-62
2021/04/04 00:40:36;;;;;;;14.48;6.72;;;6.30;1.00;;;;;;5020302;28;20198;-62
2021/04/04 00:43:01;;;;;;;23.35;7.57;;;6.50;1.00;;;;;;5020397;28;20181;-62
2021/04/04 00:45:30;;;;;;;14.00;7.47;;;6.50;1.00;;;;;;5019822;28;20182;-62
2021/04/04 00:47:56;;;;;;;20.58;7.70;;;6.50;1.00;;;;;;5019855;28;20185;-62
2021/04/04 00:50:25;;;;;;;12.30;5.40;;;6.60;1.00;;;;;;5020117;28;20178;-62
2021/04/04 00:52:52;;;;;;;20.67;7.80;;;6.60;1.00;;;;;;5020326;28;20790;-62
2021/04/04 00:55:17;;;;;;;17.15;6.68;;;6.60;1.00;;;;;;5019868;28;20183;-66
2021/04/04 00:57:44;;;;;;;15.57;7.63;;;6.50;1.00;;;;;;5020035;28;20267;-66
2021/04/04 01:00:12;;;;;;;11.90;6.35;;;6.50;1.00;;;;;;5020089;28;20242;-66
2021/04/04 01:02:40;;;;;;;10.63;5.97;;;6.50;1.00;;;;;;5019991;28;20213;-66
2021/04/04 01:05:07;;;;;;;13.45;5.43;;;6.60;1.00;;;;;;5019832;28;20216;-66
2021/04/04 01:07:34;;;;;;;10.85;5.72;;;6.60;1.00;;;;;;5019867;28;20185;-66
2021/04/04 01:10:03;;;;;;;9.75;5.50;;;6.60;1.00;;;;;;5019798;28;20218;-66
2021/04/04 01:12:39;;;;;;;14.00;5.60;;;6.50;1.00;;;;;;5019840;28;20250;-66
2021/04/04 01:15:12;;;;;;;13.60;4.57;;;6.30;1.00;;;;;;5019659;28;20183;-64
2021/04/04 01:17:38;;;;;;;10.35;5.57;;;6.20;1.00;;;;;;5019906;28;20181;-65
2021/04/04 01:20:10;;;;;;;8.55;5.28;;;6.30;1.00;;;;;;5019786;28;20181;-64
2021/04/04 01:22:57;;;;;;;15.02;5.57;;;6.30;1.00;;;;;;5019831;28;20189;-64
2021/04/04 01:25:27;;;;;;;22.55;5.82;;;6.20;1.00;;;;;;5019526;28;20224;-65
2021/04/04 01:27:58;;;;;;;24.58;6.32;;;6.10;1.00;;;;;;5019694;28;20267;-64
2021/04/04 01:30:32;;;;;;;15.10;4.70;;;6.10;1.00;;;;;;5019772;28;20180;-65
2021/04/04 01:32:59;;;;;;;15.52;5.22;;;6.00;1.00;;;;;;5018800;28;20272;-64
2021/04/04 01:35:28;;;;;;;11.05;5.47;;;6.00;1.00;;;;;;5015844;28;20190;-64
2021/04/04 01:37:58;;;;;;;9.73;4.25;;;6.10;1.00;;;;;;5016441;28;20304;-64
2021/04/04 01:40:25;;;;;;;13.40;4.53;;;6.20;1.00;;;;;;5016571;28;20184;-64
2021/04/04 01:42:53;;;;;;;16.20;4.55;;;6.30;1.00;;;;;;5016376;28;20181;-64
2021/04/04 01:45:21;;;;;;;11.48;5.10;;;6.40;1.00;;;;;;5016325;28;20174;-63
2021/04/04 01:47:48;;;;;;;38.78;6.07;;;6.10;1.00;;;;;;5016756;28;20260;-61
2021/04/04 01:50:14;;;;;;;13.07;5.10;;;6.10;1.00;;;;;;5016259;28;20185;-61
2021/04/04 01:52:41;;;;;;;13.27;4.70;;;6.10;1.00;;;;;;5016248;28;20368;-61
2021/04/04 01:55:08;;;;;;;9.75;4.50;;;6.10;1.00;;;;;;5015950;28;20685;-61
2021/04/04 01:57:35;;;;;;;13.50;4.80;;;6.10;1.00;;;;;;5016076;28;20212;-61
2021/04/04 02:00:07;;;;;;;6.55;4.63;;;5.90;1.00;;;;;;5016173;28;20237;-62
2021/04/04 02:02:33;;;;;;;18.88;6.75;;;5.90;1.00;;;;;;5016187;28;20549;-61
2021/04/04 02:05:01;;;;;;;11.67;4.70;;;5.90;1.00;;;;;;5015753;28;20192;-61
2021/04/04 02:07:27;;;;;;;16.77;5.28;;;5.80;1.00;;;;;;5016775;28;20777;-61
2021/04/04 02:09:53;;;;;;;13.63;4.78;;;5.70;1.00;;;;;;5017128;28;20224;-65
2021/04/04 02:12:19;;;;;;;16.80;5.70;;;5.80;1.00;;;;;;5016333;28;20181;-64
2021/04/04 02:14:47;;;;;;;15.93;4.70;;;5.90;1.00;;;;;;5031243;28;20277;-64
2021/04/04 02:17:13;;;;;;;14.55;4.55;;;6.00;1.00;;;;;;5016316;28;20487;-66
2021/04/04 02:19:39;;;;;;;11.47;4.93;;;6.00;1.00;;;;;;5015677;28;20271;-66
2021/04/04 02:22:05;;;;;;;10.75;3.95;;;6.00;1.00;;;;;;5014996;28;20442;-65
2021/04/04 02:24:33;;;;;;;13.27;5.30;;;6.00;1.00;;;;;;5015577;28;20190;-66
2021/04/04 02:26:59;;;;;;;9.77;4.45;;;5.90;1.00;;;;;;5015648;28;20184;-66
2021/04/04 02:29:24;;;;;;;18.60;5.43;;;6.10;1.00;;;;;;5015527;28;20222;-65
2021/04/04 02:31:57;;;;;;;11.40;4.80;;;6.10;1.00;;;;;;5015509;28;20176;-66
2021/04/04 02:34:30;;;;;;;12.98;4.70;;;6.20;1.00;;;;;;5015277;28;20824;-66
2021/04/04 02:36:56;;;;;;;11.02;4.00;;;6.00;1.00;;;;;;5015598;28;20331;-66
2021/04/04 02:39:34;;;;;;;12.70;5.30;;;5.90;1.00;;;;;;5015383;28;20682;-66
2021/04/04 02:42:02;;;;;;;17.63;7.03;;;5.80;1.00;;;;;;5015315;28;20433;-65
2021/04/04 02:44:30;;;;;;;14.55;5.65;;;5.80;1.00;;;;;;5015185;28;20200;-66
2021/04/04 02:47:01;;;;;;;16.38;6.30;;;5.70;1.00;;;;;;5015274;28;20179;-66
2021/04/04 02:49:33;;;;;;;13.40;4.72;;;5.60;1.00;;;;;;5015508;28;20238;-64
2021/04/04 02:52:01;;;;;;;14.98;4.32;;;5.50;1.00;;;;;;5015226;28;20220;-64
2021/04/04 02:54:29;;;;;;;9.48;4.40;;;5.20;1.00;;;;;;5015065;28;20273;-64
2021/04/04 02:56:57;;;;;;;15.73;6.57;;;5.10;1.00;;;;;;5015343;28;20184;-64
2021/04/04 02:59:30;;;;;;;13.00;6.68;;;5.10;1.00;;;;;;5015400;28;20268;-64
2021/04/04 03:01:59;;;;;;;12.70;4.55;;;5.10;1.00;;;;;;5014517;28;20189;-64
2021/04/04 03:04:26;;;;;;;34.67;6.65;;;5.10;1.00;;;;;;5015164;28;20621;-64
2021/04/04 03:06:52;;;;;;;18.48;5.30;;;5.20;1.00;;;;;;5030531;28;20216;-65
2021/04/04 03:09:20;;;;;;;6.55;4.72;;;5.20;1.00;;;;;;5014845;28;20637;-61
2021/04/04 03:11:47;;;;;;;17.98;5.30;;;5.10;1.00;;;;;;5014782;28;20194;-61
2021/04/04 03:14:14;;;;;;;13.10;4.03;;;5.20;1.00;;;;;;5014758;28;20186;-60
2021/04/04 03:16:41;;;;;;;10.43;4.57;;;5.20;1.00;;;;;;5014068;28;20178;-62
2021/04/04 03:19:08;;;;;;;11.98;4.65;;;5.20;1.00;;;;;;5014882;28;20502;-66
2021/04/04 03:21:35;;;;;;;11.80;4.10;;;5.10;1.00;;;;;;5014964;28;20196;-64
2021/04/04 03:24:03;;;;;;;15.05;4.35;;;5.00;1.00;;;;;;5015043;28;20522;-64
2021/04/04 03:26:30;;;;;;;10.48;5.47;;;5.00;1.00;;;;;;5014922;28;20241;-64
2021/04/04 03:28:56;;;;;;;11.38;3.95;;;4.90;1.00;;;;;;5014751;28;20539;-62
2021/04/04 03:31:22;;;;;;;19.73;5.18;;;4.80;1.00;;;;;;5014844;28;20189;-64
2021/04/04 03:33:49;;;;;;;7.70;3.53;;;4.90;1.00;;;;;;5014619;28;20171;-65
2021/04/04 03:36:16;;;;;;;13.98;4.25;;;5.10;1.00;;;;;;5014764;28;20244;-64
2021/04/04 03:38:44;;;;;;;15.45;5.32;;;5.20;1.00;;;;;;5014671;28;20201;-63
2021/04/04 03:41:12;;;;;;;18.35;4.70;;;5.30;1.00;;;;;;5030027;28;20181;-64
2021/04/04 03:43:39;;;;;;;12.30;5.38;;;5.30;1.00;;;;;;5014406;28;20188;-64
2021/04/04 03:46:09;;;;;;;11.20;4.53;;;5.40;1.00;;;;;;5014801;28;20186;-63
2021/04/04 03:48:35;;;;;;;11.70;4.38;;;5.50;1.00;;;;;;5014435;28;20219;-63
2021/04/04 03:51:04;;;;;;;17.70;6.82;;;5.60;1.00;;;;;;5014585;28;20175;-64
2021/04/04 03:53:33;;;;;;;14.82;4.28;;;5.50;1.00;;;;;;5029788;28;20624;-63
2021/04/04 03:56:03;;;;;;;14.20;5.25;;;5.50;1.00;;;;;;5014385;28;20195;-62
2021/04/04 03:58:31;;;;;;;8.25;4.50;;;5.50;1.00;;;;;;5013778;28;20188;-64
2021/04/04 04:00:58;;;;;;;13.68;4.78;;;5.80;1.00;;;;;;5014299;28;20257;-63
2021/04/04 04:03:25;;;;;;;8.07;3.88;;;5.80;1.00;;;;;;5029353;28;20252;-63
2021/04/04 04:05:51;;;;;;;11.07;4.10;;;5.80;1.00;;;;;;5014146;28;20186;-65
2021/04/04 04:08:18;;;;;;;9.60;3.83;;;5.80;1.00;;;;;;5014094;28;20200;-65
2021/04/04 04:10:45;;;;;;;11.05;3.95;;;5.80;1.00;;;;;;5014213;28;20173;-65
2021/04/04 04:13:11;;;;;;;11.98;4.93;;;5.80;1.00;;;;;;5029619;28;20216;-64
2021/04/04 04:15:36;;;;;;;9.70;4.00;;;5.70;1.00;;;;;;5014137;28;20673;-65
2021/04/04 04:18:04;;;;;;;8.40;4.20;;;5.70;1.00;;;;;;5014368;28;20180;-65
2021/04/04 04:20:30;;;;;;;12.52;4.57;;;5.60;1.00;;;;;;5014058;28;20264;-65
2021/04/04 04:23:02;;;;;;;11.15;3.38;;;5.80;1.00;;;;;;5014028;28;20628;-62
2021/04/04 04:25:29;;;;;;;8.15;3.72;;;5.80;1.00;;;;;;5013731;28;20241;-63
2021/04/04 04:27:57;;;;;;;11.38;3.60;;;5.80;99.90;;;;;;5014139;28;20588;-63
2021/04/04 04:30:24;;;;;;;10.48;3.80;;;5.80;99.90;;;;;;5029733;28;20187;-64
2021/04/04 04:32:57;;;;;;;11.43;4.57;;;5.70;99.90;;;;;;5014193;28;20178;-63
2021/04/04 04:35:25;;;;;;;6.95;4.07;;;5.80;99.90;;;;;;5014040;28;20189;-63
2021/04/04 04:37:51;;;;;;;10.55;4.35;;;5.70;99.90;;;;;;5014038;28;20193;-64
2021/04/04 04:40:18;;;;;;;10.68;3.72;;;5.70;99.90;;;;;;5013903;28;20547;-63
2021/04/04 04:42:48;;;;;;;13.15;3.22;;;5.80;99.90;;;;;;5014378;28;20209;-63
2021/04/04 04:45:24;;;;;;;8.07;3.22;;;5.70;84.70;;;;;;5014321;28;20268;-63
2021/04/04 04:47:53;;;;;;;13.57;3.25;;;5.70;1.40;;;;;;5014370;28;20177;-64
2021/04/04 04:50:20;;;;;;;6.82;3.05;;;5.70;1.00;;;;;;5014748;28;20189;-63
2021/04/04 04:52:45;;;;;;;12.60;4.22;;;5.90;1.00;;;;;;5015578;28;20184;-63
2021/04/04 04:55:12;;;;;;;7.10;2.97;;;5.90;1.00;;;;;;5014558;28;20177;-64
2021/04/04 04:57:39;;;;;;;10.45;3.10;;;5.90;99.90;;;;;;5014513;28;20754;-63
2021/04/04 05:00:09;;;;;;;11.15;3.67;;;6.00;99.90;;;;;;5015681;28;20295;-65
2021/04/04 05:02:36;;;;;;;7.30;3.00;;;5.90;99.90;;;;;;5029642;28;20179;-65
2021/04/04 05:05:07;;;;;;;9.25;3.90;;;5.90;20.90;;;;;;5013826;28;20519;-64
2021/04/04 05:07:34;;;;;;;7.03;3.42;;;6.00;99.90;;;;;;5014134;28;20181;-63
2021/04/04 05:10:02;;;;;;;7.55;2.92;;;6.00;1.00;;;;;;5015559;28;20688;-66
2021/04/04 05:12:30;;;;;;;13.57;3.22;;;6.10;1.00;;;;;;5017711;28;20693;-66
2021/04/04 05:14:59;;;;;;;7.05;3.00;;;6.00;1.00;;;;;;5017420;28;20228;-66
2021/04/04 05:17:25;;;;;;;11.65;2.97;;;6.10;1.00;;;;;;5017571;28;20176;-67
2021/04/04 05:19:51;;;;;;;5.00;3.00;;;6.30;1.00;;;;;;5017411;28;20193;-64
2021/04/04 05:22:17;;;;;;;6.20;2.80;;;6.30;99.90;;;;;;5017600;28;20216;-64
2021/04/04 05:24:43;;;;;;;10.93;4.00;;;6.20;99.90;;;;;;5016658;28;20657;-64
2021/04/04 05:27:08;;;;;;;9.15;3.65;;;6.20;99.90;;;;;;5032226;28;20656;-64
2021/04/04 05:29:34;;;;;;;6.03;3.07;;;6.20;99.90;;;;;;5016710;28;20209;-64
2021/04/04 05:32:00;;;;;;;13.23;3.80;;;6.40;1.00;;;;;;5016853;28;20266;-64
2021/04/04 05:34:28;;;;;;;11.75;2.88;;;6.50;99.90;;;;;;5016413;28;20187;-64
2021/04/04 05:37:02;;;;;;;7.57;3.22;;;6.40;99.90;;;;;;5016646;28;20185;-64
2021/04/04 05:39:30;;;;;;;10.30;2.38;;;6.40;99.90;;;;;;5032029;28;20208;-65
2021/04/04 05:41:59;;;;;;;17.50;2.90;;;6.20;99.90;;;;;;5016680;28;20181;-64
2021/04/04 05:44:58;;;;;;;9.73;2.83;;;6.20;99.90;;;;;;5016667;28;20216;-64
2021/04/04 05:47:36;;;;;;;7.78;3.20;;;6.20;1.00;;;;;;5016444;28;20191;-64
2021/04/04 05:50:04;;;;;;;5.57;2.50;;;6.20;99.90;;;;;;5016506;28;20545;-64
2021/04/04 05:52:45;;;;;;;7.53;2.60;;;6.10;99.90;;;;;;5016153;28;20181;-63
2021/04/04 05:55:37;;;;;;;7.05;2.30;;;6.10;1.00;;;;;;5016113;28;20180;-63
2021/04/04 05:58:12;;;;;;;4.85;2.63;;;6.20;99.90;;;;;;5016226;28;20214;-63
2021/04/04 06:00:44;;;;;;;13.38;3.22;;;6.30;55.20;;;;;;5016303;28;20214;-64
2021/04/04 06:03:12;;;;;;;6.25;2.45;;;6.20;1.00;;;;;;5015945;28;20199;-64
2021/04/04 06:06:15;;;;;;;10.93;3.00;;;6.20;1.00;;;;;;5016062;28;20190;-65
2021/04/04 06:09:08;;;;;;;10.93;3.83;;;6.30;1.00;;;;;;5016078;28;20218;-64
2021/04/04 06:11:55;;;;;;;5.72;2.17;;;6.40;1.00;;;;;;5015946;28;20183;-65
2021/04/04 06:14:58;;;;;;;4.85;2.70;;;6.50;99.90;;;;;;5015523;28;20192;-65
2021/04/04 06:17:27;;;;;;;4.78;2.85;;;6.60;99.90;;;;;;5015862;28;20190;-64
2021/04/04 06:20:03;;;;;;;7.05;2.70;;;6.50;77.30;;;;;;5015541;28;20274;-64
2021/04/04 06:22:35;;;;;;;6.20;3.00;;;6.40;1.00;;;;;;5016193;28;20513;-63
2021/04/04 06:25:18;;;;;;;7.25;2.78;;;6.70;99.90;;;;;;5015737;28;20220;-62
2021/04/04 06:27:56;;;;;;;4.97;2.10;;;6.60;1.00;;;;;;5015731;28;20182;-63
2021/04/04 06:31:08;;;;;;;5.50;2.38;;;6.80;1.00;;;;;;5015616;28;20279;-62
2021/04/04 06:33:22;;;;;;;9.40;3.20;;;6.90;99.90;;;;;;5011517;28;20189;-65
2021/04/04 06:36:25;;;;;;;10.57;2.35;;;7.10;94.70;;;;;;5030961;28;20315;-64
2021/04/04 06:39:04;;;;;;;8.15;2.70;;;7.00;1.00;;;;;;5015299;28;20302;-64
2021/04/04 06:41:41;;;;;;;5.75;2.40;;;6.80;99.90;;;;;;5015502;28;20705;-64
2021/04/04 06:44:13;;;;;;;9.38;2.63;;;6.70;99.90;;;;;;5015361;28;20273;-64
2021/04/04 06:46:59;;;;;;;9.20;3.42;;;6.70;99.90;;;;;;5015851;28;20197;-64
2021/04/04 06:50:09;;;;;;;6.35;2.33;;;6.80;99.90;;;;;;5015177;28;20260;-64
2021/04/04 06:52:53;;;;;;;8.48;3.05;;;7.00;99.90;;;;;;4955481;29;20643;-64
2021/04/04 06:55:47;;;;;;;7.95;2.85;;;7.10;1.00;;;;;;5010178;28;20642;-64
2021/04/04 06:58:29;;;;;;;9.20;2.53;;;7.20;1.00;;;;;;5015198;28;20249;-64
2021/04/04 07:01:20;;;;;;;10.32;3.28;;;7.30;1.00;;;;;;5015207;28;20188;-64
2021/04/04 07:03:55;;;;;;;5.25;2.40;;;7.40;99.90;;;;;;5014987;28;20255;-64
2021/04/04 07:06:27;;;;;;;8.30;2.63;;;7.40;99.90;;;;;;5014996;28;20208;-65
2021/04/04 07:09:05;;;;;;;4.78;2.85;;;7.20;1.00;;;;;;5015059;28;20301;-65
2021/04/04 07:11:51;;;;;;;7.03;2.60;;;7.20;1.00;;;;;;5014961;28;20572;-65
2021/04/04 07:14:40;;;;;;;7.85;3.50;;;7.20;99.90;;;;;;5014799;28;20512;-64
2021/04/04 07:17:25;;;;;;;7.28;2.45;;;7.10;99.90;;;;;;5014938;28;20188;-64
2021/04/04 07:20:17;;;;;;;7.13;2.50;;;7.20;1.00;;;;;;5013837;28;20200;-64
2021/04/04 07:23:04;;;;;;;9.50;3.30;;;7.40;1.00;;;;;;4991827;28;20206;-64
2021/04/04 07:25:55;;;;;;;7.10;3.00;;;7.50;99.90;;;;;;5014585;28;20183;-64
2021/04/04 07:28:20;;;;;;;8.00;2.70;;;7.40;1.00;;;;;;5014563;28;20651;-64
2021/04/04 07:30:51;;;;;;;6.20;3.00;;;7.10;1.00;;;;;;5014716;28;20186;-64
2021/04/04 07:33:43;;;;;;;9.05;3.67;;;7.10;52.20;;;;;;5013487;28;20641;-64
2021/04/04 07:36:24;;;;;;;8.43;2.78;;;7.00;99.90;;;;;;5014423;28;20189;-64
2021/04/04 07:39:11;;;;;;;14.82;5.22;;;7.10;99.90;;;;;;5013077;28;20308;-64
2021/04/04 07:42:20;;;;;;;6.80;3.35;;;7.10;1.00;;;;;;5008567;28;20244;-63
2021/04/04 07:44:54;;;;;;;9.60;3.25;;;6.90;99.90;;;;;;5010042;28;20196;-63
2021/04/04 07:47:37;;;;;;;7.60;2.95;;;6.70;28.60;;;;;;5016688;28;20228;-63
2021/04/04 07:50:13;;;;;;;4.55;2.55;;;6.60;99.90;;;;;;5013432;28;20267;-63
2021/04/04 07:53:16;;;;;;;8.98;4.50;;;6.60;99.90;;;;;;5014910;28;20204;-63
2021/04/04 07:55:51;;;;;;;6.88;3.17;;;6.80;1.00;;;;;;5014726;28;20305;-63
2021/04/04 07:58:25;;;;;;;11.57;3.55;;;6.80;99.90;;;;;;5014668;28;20275;-63
2021/04/04 08:00:58;;;;;;;6.97;4.25;;;7.00;99.90;;;;;;5014554;28;20189;-64
2021/04/04 08:03:38;;;;;;;11.35;4.13;;;6.90;99.90;;;;;;5014187;28;20338;-65
2021/04/04 08:06:16;;;;;;;14.23;4.60;;;7.00;99.90;;;;;;5014531;28;20615;-64
2021/04/04 08:08:51;;;;;;;7.43;3.70;;;7.20;57.30;;;;;;5009872;28;20205;-64
2021/04/04 08:11:24;;;;;;;12.38;4.05;;;7.20;99.90;;;;;;5009490;28;20688;-64
2021/04/04 08:14:06;;;;;;;10.02;3.20;;;7.20;19.10;;;;;;5006658;28;20193;-64
2021/04/04 08:16:46;;;;;;;14.38;5.95;;;7.10;1.00;;;;;;5013660;28;20242;-64
2021/04/04 08:19:13;;;;;;;6.43;3.90;;;7.10;99.90;;;;;;5007508;28;20188;-64
2021/04/04 08:22:01;;;;;;;10.32;3.70;;;7.10;99.90;;;;;;5028917;28;20293;-64
2021/04/04 08:24:53;;;;;;;10.52;4.65;;;7.20;99.90;;;;;;5003415;28;20235;-64
2021/04/04 08:27:46;;;;;;;10.70;4.15;;;7.20;99.90;;;;;;5027294;28;20189;-65
2021/04/04 08:30:28;;;;;;;11.05;4.32;;;7.20;99.90;;;;;;5010715;28;20276;-64
2021/04/04 08:33:00;;;;;;;8.18;3.88;;;7.10;99.90;;;;;;5008867;28;20186;-64
2021/04/04 08:35:32;;;;;;;7.65;3.70;;;7.10;42.90;;;;;;5013001;28;20656;-64
2021/04/04 08:38:26;;;;;;;7.63;3.63;;;7.10;71.70;;;;;;5010832;28;20275;-64
2021/04/04 08:40:55;;;;;;;9.40;4.50;;;7.30;38.60;;;;;;5006336;28;20194;-63
2021/04/04 08:43:22;;;;;;;9.32;4.28;;;7.40;1.00;;;;;;5013222;28;20193;-63
2021/04/04 08:45:52;;;;;;;9.98;4.35;;;7.30;1.00;;;;;;5009974;28;20178;-66
2021/04/04 08:48:19;;;;;;;10.80;4.57;;;7.40;99.90;;;;;;5011460;28;20272;-66
2021/04/04 08:50:48;;;;;;;7.00;3.40;;;7.40;99.90;;;;;;5015641;28;20264;-66
2021/04/04 08:53:23;;;;;;;7.53;3.05;;;7.50;99.90;;;;;;5014125;28;20241;-66
2021/04/04 08:55:50;;;;;;;8.05;3.80;;;7.60;99.90;;;;;;5011369;28;20197;-66
2021/04/04 08:58:17;;;;;;;7.60;2.80;;;7.70;99.90;;;;;;5013848;28;20189;-66
2021/04/04 09:00:46;;;;;;;7.57;3.28;;;8.00;99.90;;;;;;5015214;28;21472;-66
2021/04/04 09:03:25;;;;;;;7.97;3.50;;;8.10;99.90;;;;;;5016124;28;20281;-65
2021/04/04 09:06:08;;;;;;;10.23;4.00;;;7.90;75.70;;;;;;5015057;28;20500;-66
2021/04/04 09:08:39;;;;;;;6.80;3.35;;;8.20;99.90;;;;;;5008852;28;20205;-64
2021/04/04 09:11:06;;;;;;;8.85;3.63;;;8.10;1.00;;;;;;5016292;28;20239;-64
2021/04/04 09:13:34;;;;;;;5.60;3.65;;;8.10;1.00;;;;;;5031454;28;20677;-66
2021/04/04 09:16:07;;;;;;;11.38;5.82;;;8.20;1.00;;;;;;5014762;28;20622;-66
2021/04/04 09:18:33;;;;;;;10.50;4.13;;;8.20;1.00;;;;;;5011937;28;20337;-66
2021/04/04 09:21:08;;;;;;;17.57;4.00;;;8.10;1.00;;;;;;5013607;28;20285;-64
2021/04/04 09:23:36;;;;;;;10.75;3.20;;;8.00;1.00;;;;;;5011939;28;20197;-63
2021/04/04 09:26:10;;;;;;;5.40;4.03;;;8.20;1.00;;;;;;5013816;28;20259;-65
2021/04/04 09:28:40;;;;;;;9.80;3.53;;;8.30;1.00;;;;;;5016383;28;20211;-64
2021/04/04 09:31:17;;;;;;;4.53;2.53;;;8.60;1.00;;;;;;5012471;28;20186;-64
2021/04/04 09:33:47;;;;;;;6.05;2.95;;;8.30;99.90;;;;;;5016358;28;20171;-62
2021/04/04 09:36:13;;;;;;;8.75;2.97;;;8.30;1.00;;;;;;5032258;28;20193;-62
2021/04/04 09:38:42;;;;;;;7.07;2.33;;;8.30;1.00;;;;;;5016998;28;20204;-66
2021/04/04 09:41:09;;;;;;;5.78;3.22;;;8.30;1.00;;;;;;5016824;28;20187;-66
2021/04/04 09:44:02;;;;;;;7.45;3.05;;;8.30;99.90;;;;;;5022015;28;20216;-62
2021/04/04 09:46:28;;;;;;;5.22;2.55;;;8.20;99.90;;;;;;5015941;28;20197;-62
2021/04/04 09:48:54;;;;;;;4.50;2.80;;;8.10;99.90;;;;;;5027855;28;20611;-62
2021/04/04 09:51:19;;;;;;;6.07;3.03;;;8.10;1.00;;;;;;5031607;28;20239;-64
2021/04/04 09:53:47;;;;;;;8.23;2.77;;;8.20;1.00;;;;;;5027830;28;20231;-65
2021/04/04 09:56:28;;;;;;;5.03;2.55;;;8.40;1.00;;;;;;5035294;28;20237;-65
2021/04/04 09:58:54;;;;;;;7.07;3.10;;;8.50;1.00;;;;;;5035540;28;20185;-65
2021/04/04 10:01:19;;;;;;;8.15;3.63;;;8.50;78.10;;;;;;5028653;28;20260;-65
2021/04/04 10:04:00;;;;;;;3.50;2.40;;;8.60;13.90;;;;;;5027675;28;20240;-64
2021/04/04 10:06:26;;;;;;;5.05;2.88;;;8.60;15.20;;;;;;5036178;28;20189;-63
2021/04/04 10:08:58;;;;;;;6.82;2.78;;;8.60;99.90;;;;;;5036032;28;20246;-65
2021/04/04 10:11:25;;;;;;;4.68;2.80;;;8.70;1.00;;;;;;5035776;28;20186;-64
2021/04/04 10:13:51;;;;;;;6.70;2.80;;;8.70;99.90;;;;;;5034498;28;20185;-64
2021/04/04 10:16:23;;;;;;;4.03;2.57;;;8.60;99.90;;;;;;5035821;28;20569;-64
2021/04/04 10:19:06;;;;;;;6.47;3.22;;;8.40;1.00;;;;;;5035774;28;20188;-65
2021/04/04 10:22:00;;;;;;;6.40;2.17;;;8.70;1.00;;;;;;5035637;28;20208;-64
2021/04/04 10:24:30;;;;;;;6.00;3.00;;;8.70;1.00;;;;;;5034197;28;20204;-64
2021/04/04 10:27:22;;;;;;;5.95;3.08;;;8.40;99.90;;;;;;5034471;28;20259;-63
2021/04/04 10:30:00;;;;;;;8.63;3.03;;;8.60;99.90;;;;;;5035776;28;20209;-66
2021/04/04 10:32:26;;;;;;;4.50;2.22;;;8.40;1.00;;;;;;5034458;28;20262;-65
2021/04/04 10:34:52;;;;;;;4.80;2.47;;;8.10;99.90;;;;;;5028358;28;20631;-64
2021/04/04 10:37:24;;;;;;;7.00;3.33;;;8.30;99.90;;;;;;5023619;28;20193;-63
2021/04/04 10:40:01;;;;;;;5.28;2.55;;;8.60;99.90;;;;;;5023316;28;20231;-64
2021/04/04 10:42:27;;;;;;;7.18;2.35;;;9.10;99.90;;;;;;5044906;28;20633;-64
2021/04/04 10:45:16;;;;;;;5.32;2.22;;;9.10;1.00;;;;;;5035277;28;20295;-63
2021/04/04 10:47:43;;;;;;;6.35;2.85;;;8.70;1.00;;;;;;5020230;28;20643;-62
2021/04/04 10:50:15;;;;;;;4.90;2.55;;;8.20;1.00;;;;;;5026422;28;20213;-64
2021/04/04 10:52:43;;;;;;;5.80;2.10;;;8.10;1.00;;;;;;5025989;28;20248;-64
2021/04/04 10:55:10;;;;;;;5.43;3.40;;;8.30;99.90;;;;;;5034222;28;20625;-64
2021/04/04 10:57:37;;;;;;;6.15;2.30;;;8.40;1.00;;;;;;5035018;28;20192;-64
2021/04/04 11:00:10;;;;;;;5.70;2.53;;;8.40;1.00;;;;;;5035215;28;20467;-62
2021/04/04 11:02:40;;;;;;;4.18;2.53;;;8.30;11.10;;;;;;5036307;28;20178;-63
2021/04/04 11:05:09;;;;;;;3.22;2.10;;;8.40;1.00;;;;;;5034120;28;20197;-62
2021/04/04 11:07:35;;;;;;;6.30;2.38;;;8.30;99.90;;;;;;5034946;28;20184;-64
2021/04/04 11:10:06;;;;;;;7.53;2.45;;;8.10;99.90;;;;;;5034509;28;20220;-64
2021/04/04 11:12:33;;;;;;;5.35;1.95;;;8.20;1.00;;;;;;5033847;28;20177;-64
2021/04/04 11:15:01;;;;;;;6.15;2.30;;;8.40;1.00;;;;;;5033423;28;20276;-64
2021/04/04 11:17:28;;;;;;;7.30;1.85;;;8.50;99.90;;;;;;5034772;28;20187;-62
2021/04/04 11:19:53;;;;;;;5.68;2.15;;;8.70;1.00;;;;;;5035141;28;20185;-62
2021/04/04 11:22:24;;;;;;;2.23;1.77;;;8.50;99.90;;;;;;5034924;28;20193;-63
2021/04/04 11:25:06;;;;;;;4.00;1.85;;;8.70;99.90;;;;;;5034477;28;20431;-62
2021/04/04 11:27:43;;;;;;;5.03;2.35;;;9.00;1.00;;;;;;5034719;28;20490;-62
2021/04/04 11:30:37;;;;;;;5.70;3.00;;;8.70;1.00;;;;;;5033668;28;20219;-62
2021/04/04 11:33:21;;;;;;;4.70;2.03;;;8.50;99.90;;;;;;5033429;28;20205;-66
2021/04/04 11:36:11;;;;;;;5.03;2.20;;;8.50;1.00;;;;;;5034451;28;20177;-64
2021/04/04 11:38:49;;;;;;;4.25;2.03;;;8.60;1.00;;;;;;5023493;28;20206;-64
2021/04/04 11:41:18;;;;;;;1.95;1.30;;;8.20;1.00;;;;;;5034084;28;20178;-64
2021/04/04 11:43:50;;;;;;;8.43;2.63;;;8.00;99.90;;;;;;5034246;28;20188;-64
2021/04/04 11:46:42;;;;;;;6.65;2.55;;;8.10;1.00;;;;;;5036262;28;20578;-65
2021/04/04 11:49:29;;;;;;;3.75;2.20;;;8.40;99.90;;;;;;5036094;28;20202;-65
2021/04/04 11:51:55;;;;;;;5.40;2.42;;;8.30;1.00;;;;;;5036172;28;20178;-65
2021/04/04 11:54:49;;;;;;;5.57;2.03;;;8.40;1.00;;;;;;5035938;28;20170;-64
2021/04/04 11:57:27;;;;;;;7.28;2.25;;;8.80;99.90;;;;;;5035696;28;20174;-65
2021/04/04 11:59:56;;;;;;;4.80;1.80;;;9.00;1.00;;;;;;5035992;28;20189;-64
2021/04/04 12:02:28;;;;;;;4.82;1.80;;;9.60;99.90;;;;;;5037060;28;20260;-65
2021/04/04 12:05:07;;;;;;;3.60;1.73;;;9.60;1.00;;;;;;5036647;28;20325;-64
2021/04/04 12:07:43;;;;;;;3.33;1.50;;;9.80;1.00;;;;;;5015863;28;20193;-64
2021/04/04 12:10:18;;;;;;;2.55;1.75;;;9.80;1.00;;;;;;5013068;28;20348;-64
2021/04/04 12:12:44;;;;;;;7.57;1.80;;;9.70;1.00;;;;;;5017586;28;20188;-65
2021/04/04 12:15:12;;;;;;;1.43;1.27;;;9.30;1.00;;;;;;5028532;28;20192;-63
2021/04/04 12:17:38;;;;;;;3.08;1.20;;;9.30;1.00;;;;;;5021544;28;20444;-64
2021/04/04 12:20:06;;;;;;;3.97;2.15;;;9.30;1.00;;;;;;5026111;28;20185;-64
2021/04/04 12:22:37;;;;;;;3.80;1.63;;;9.10;99.90;;;;;;5019949;28;20194;-64
2021/04/04 12:25:06;;;;;;;2.70;1.80;;;9.00;99.90;;;;;;5032339;28;20268;-66
2021/04/04 12:27:31;;;;;;;4.57;2.00;;;8.90;99.90;;;;;;5034202;28;20661;-67
2021/04/04 12:29:57;;;;;;;9.73;3.07;;;8.90;1.00;;;;;;5033791;28;20244;-64
2021/04/04 12:32:28;;;;;;;4.03;1.98;;;8.70;1.00;;;;;;5034229;28;20257;-63
2021/04/04 12:34:56;;;;;;;3.22;1.80;;;8.80;1.00;;;;;;5032851;28;20205;-64
2021/04/04 12:37:24;;;;;;;10.93;2.58;;;9.00;1.00;;;;;;5024635;28;20279;-64
2021/04/04 12:39:55;;;;;;;7.93;2.20;;;8.90;1.00;;;;;;5017069;28;20213;-65
2021/04/04 12:42:27;;;;;;;11.18;3.22;;;8.90;1.00;;;;;;5028522;28;20201;-62
2021/04/04 12:44:53;;;;;;;11.70;2.67;;;9.00;47.50;;;;;;5025990;28;20181;-64
2021/04/04 12:47:24;;;;;;;6.07;2.42;;;9.00;1.00;;;;;;5033949;28;20173;-64
2021/04/04 12:50:05;;;;;;;9.27;2.35;;;9.00;1.00;;;;;;5033525;28;20209;-65
2021/04/04 12:52:38;;;;;;;10.95;2.50;;;9.00;1.00;;;;;;5033567;28;20184;-65
2021/04/04 12:55:09;;;;;;;10.13;4.03;;;8.90;10.30;;;;;;5033120;28;20177;-65
2021/04/04 12:57:38;;;;;;;7.47;2.05;;;9.10;1.00;;;;;;5033111;28;20181;-66
2021/04/04 13:00:17;;;;;;;2.67;1.50;;;9.30;1.00;;;;;;5033265;28;20182;-66
2021/04/04 13:02:56;;;;;;;4.95;2.08;;;9.00;99.90;;;;;;5032165;28;20700;-67
2021/04/04 13:05:23;;;;;;;3.70;2.50;;;9.20;1.00;;;;;;5031685;28;20203;-65
2021/04/04 13:07:49;;;;;;;4.80;2.53;;;9.40;1.00;;;;;;5017193;28;20622;-64
2021/04/04 13:10:15;;;;;;;4.23;2.13;;;9.20;1.00;;;;;;5031789;28;20221;-64
2021/04/04 13:12:41;;;;;;;13.63;2.65;;;8.70;1.00;;;;;;5032902;28;20516;-64
2021/04/04 13:15:08;;;;;;;7.70;2.17;;;8.70;99.10;;;;;;5032729;28;20178;-63
2021/04/04 13:17:40;;;;;;;5.55;1.98;;;8.70;99.90;;;;;;5032426;28;20181;-64
2021/04/04 13:20:08;;;;;;;3.55;1.52;;;8.80;91.70;;;;;;5033136;28;20203;-64
2021/04/04 13:22:35;;;;;;;4.13;2.38;;;8.90;15.50;;;;;;5031794;28;20237;-63
2021/04/04 13:25:00;;;;;;;3.75;2.20;;;8.80;1.00;;;;;;5032752;28;20174;-63
2021/04/04 13:27:26;;;;;;;6.10;1.83;;;8.80;1.00;;;;;;5032676;28;20185;-63